Time;durP1;ratioP1;P1;durP2;ratioP2;P2;SDS_P1;SDS_P2;PMS_P1;PMS_P2;Temp;Humidity;BMP_temperature;BMP_pressure;BME280_temperature;BME280_humidity;BME280_pressure;Samples;Min_cycle;Max_cycle;Signal;HPM_P1;HPM_P2
2023/10/10 03:01:57;;;;;;;5.40;3.85;;;20.80;52.50;;;;;;5463744;23;46133;-82
2023/10/10 03:04:03;;;;;;;5.43;3.60;;;20.80;52.50;;;;;;4884428;28;45474;-83
2023/10/10 03:06:29;;;;;;;7.75;4.10;;;20.80;52.60;;;;;;4909549;28;46284;-84
2023/10/10 03:09:12;;;;;;;5.70;4.03;;;20.70;52.50;;;;;;4906410;28;45508;-83
2023/10/10 03:11:53;;;;;;;6.55;4.03;;;20.80;52.60;;;;;;4883194;28;44790;-84
2023/10/10 03:14:28;;;;;;;5.38;4.00;;;20.80;52.50;;;;;;4911052;28;45760;-83
2023/10/10 03:17:31;;;;;;;5.63;3.88;;;20.80;52.50;;;;;;4866867;28;46027;-84
2023/10/10 03:20:10;;;;;;;5.40;3.95;;;20.80;52.50;;;;;;4920562;28;45396;-82
2023/10/10 03:23:07;;;;;;;6.28;3.88;;;20.80;52.50;;;;;;4902935;28;44900;-84
2023/10/10 03:25:36;;;;;;;6.00;3.75;;;20.70;52.50;;;;;;4909602;28;45693;-84
2023/10/10 03:28:18;;;;;;;7.25;4.15;;;20.80;52.50;;;;;;4892335;28;45504;-84
2023/10/10 03:30:51;;;;;;;6.85;4.10;;;20.80;52.50;;;;;;4887847;28;45437;-84
2023/10/10 03:33:35;;;;;;;5.22;3.75;;;20.80;52.50;;;;;;4913807;28;45506;-82
2023/10/10 03:36:30;;;;;;;5.35;3.95;;;20.80;52.50;;;;;;4870775;28;45258;-84
2023/10/10 05:23:49;;;;;;;5.85;3.92;;;20.70;52.40;;;;;;4912909;28;45219;-49
2023/10/10 05:26:15;;;;;;;5.17;3.60;;;20.70;52.50;;;;;;4910049;28;45198;-52
2023/10/10 05:28:41;;;;;;;6.50;4.03;;;20.70;52.50;;;;;;4902923;28;45153;-55
2023/10/10 05:31:09;;;;;;;6.20;3.90;;;20.70;52.40;;;;;;4902599;28;45825;-52
2023/10/10 05:33:36;;;;;;;4.97;3.75;;;20.70;52.40;;;;;;4915220;28;45335;-54
2023/10/10 05:36:08;;;;;;;5.57;3.73;;;20.70;52.40;;;;;;4913722;28;45768;-55
2023/10/10 05:38:35;;;;;;;6.07;3.70;;;20.70;52.40;;;;;;4901342;28;45282;-55
2023/10/10 05:41:03;;;;;;;5.18;3.88;;;20.70;52.40;;;;;;4907878;28;45485;-55
2023/10/10 05:43:33;;;;;;;5.13;3.67;;;20.70;52.40;;;;;;4909148;28;45244;-55
2023/10/10 05:46:00;;;;;;;4.63;3.30;;;20.70;52.40;;;;;;4874411;28;45363;-55
2023/10/10 05:48:26;;;;;;;5.32;3.70;;;20.70;52.40;;;;;;4884073;28;46531;-55
2023/10/10 05:50:53;;;;;;;6.53;3.90;;;20.70;52.40;;;;;;4890793;28;45589;-52
2023/10/10 05:53:20;;;;;;;6.00;4.10;;;20.70;52.40;;;;;;4921198;28;45638;-51
2023/10/10 05:55:51;;;;;;;7.88;4.35;;;20.70;52.40;;;;;;4906084;28;45803;-49
2023/10/10 05:58:17;;;;;;;7.53;4.10;;;20.70;52.40;;;;;;4911254;28;45182;-52
2023/10/10 06:00:44;;;;;;;6.23;4.10;;;20.70;52.40;;;;;;4893260;28;45372;-49
2023/10/10 06:03:12;;;;;;;6.30;3.97;;;20.70;52.40;;;;;;4917626;28;45011;-55
2023/10/10 06:05:44;;;;;;;5.75;3.70;;;20.70;52.40;;;;;;4897638;28;45667;-53
2023/10/10 06:08:10;;;;;;;4.95;3.85;;;20.70;52.40;;;;;;4917358;28;45417;-50
2023/10/10 06:10:36;;;;;;;5.57;3.83;;;20.70;52.40;;;;;;4894455;28;46287;-51
2023/10/10 06:13:03;;;;;;;5.82;4.00;;;20.70;52.40;;;;;;4904019;28;45402;-49
2023/10/10 06:15:29;;;;;;;5.88;3.55;;;20.70;52.40;;;;;;4899701;28;45610;-53
2023/10/10 06:17:57;;;;;;;6.83;3.87;;;20.70;52.40;;;;;;4885392;28;46022;-51
2023/10/10 06:20:23;;;;;;;5.07;3.70;;;20.70;52.40;;;;;;4908961;28;45492;-52
2023/10/10 06:22:49;;;;;;;6.25;3.60;;;20.70;52.40;;;;;;4913375;28;45272;-52
2023/10/10 06:25:17;;;;;;;5.80;4.00;;;20.70;52.40;;;;;;4912450;28;44919;-52
2023/10/10 06:27:46;;;;;;;6.40;4.18;;;20.70;52.40;;;;;;4916554;28;45622;-51
2023/10/10 06:30:17;;;;;;;5.90;3.63;;;20.70;52.30;;;;;;4910253;28;44934;-49
2023/10/10 06:32:47;;;;;;;6.35;3.88;;;20.70;52.30;;;;;;4905578;28;45282;-51
2023/10/10 06:37:42;;;;;;;6.63;4.22;;;20.70;52.30;;;;;;4909049;28;46106;-55
2023/10/10 06:40:09;;;;;;;6.35;3.70;;;20.70;52.30;;;;;;4896010;28;45973;-52
2023/10/10 06:42:35;;;;;;;7.00;4.00;;;20.70;52.30;;;;;;4893981;28;45457;-56
2023/10/10 06:47:39;;;;;;;5.75;3.88;;;20.70;52.30;;;;;;4891265;28;46514;-52
2023/10/10 06:50:21;;;;;;;6.07;3.90;;;20.70;52.40;;;;;;4917913;28;45345;-56
2023/10/10 06:52:47;;;;;;;6.95;4.07;;;20.70;52.30;;;;;;4907142;28;45445;-51
2023/10/10 06:55:20;;;;;;;9.10;4.15;;;20.70;52.30;;;;;;4890050;28;44656;-53
2023/10/10 06:57:57;;;;;;;6.30;3.90;;;20.70;52.30;;;;;;4921029;28;45201;-52
2023/10/10 07:00:45;;;;;;;5.40;3.60;;;20.70;52.30;;;;;;4915722;28;45215;-51
2023/10/10 07:03:10;;;;;;;5.68;3.72;;;20.70;52.30;;;;;;4921876;28;46074;-52
2023/10/10 07:05:35;;;;;;;5.97;4.13;;;20.70;52.30;;;;;;4905609;28;47476;-52
2023/10/10 07:08:12;;;;;;;7.28;3.88;;;20.70;52.30;;;;;;4918780;28;45947;-53
2023/10/10 07:10:41;;;;;;;5.83;4.03;;;20.70;52.30;;;;;;4921816;28;45164;-49
2023/10/10 07:13:12;;;;;;;7.38;3.90;;;20.70;52.30;;;;;;4905837;28;45507;-51
2023/10/10 07:15:39;;;;;;;5.55;3.85;;;20.70;52.30;;;;;;4898809;28;45592;-49
2023/10/10 07:18:09;;;;;;;5.28;3.80;;;20.70;52.30;;;;;;4931415;28;46127;-51
2023/10/10 07:23:22;;;;;;;7.45;4.05;;;20.70;52.30;;;;;;4905325;28;45186;-50
2023/10/10 07:26:00;;;;;;;6.77;4.37;;;20.70;52.30;;;;;;4899104;28;45404;-50
2023/10/10 07:28:29;;;;;;;6.93;4.30;;;20.70;52.30;;;;;;4936627;28;45267;-55
2023/10/10 07:30:55;;;;;;;7.10;4.37;;;20.70;52.30;;;;;;4912075;28;45719;-51
2023/10/10 07:33:29;;;;;;;6.10;3.95;;;20.70;52.40;;;;;;4925478;28;45344;-49
2023/10/10 07:35:55;;;;;;;6.53;4.10;;;20.70;52.30;;;;;;4900015;28;45474;-54
2023/10/10 07:38:24;;;;;;;6.70;4.30;;;20.70;52.30;;;;;;4924201;28;46819;-50
2023/10/10 07:40:52;;;;;;;7.13;4.20;;;20.70;52.30;;;;;;4912919;28;44656;-52
2023/10/10 07:43:17;;;;;;;5.88;3.78;;;20.70;52.30;;;;;;4917310;28;45023;-54
2023/10/10 07:45:43;;;;;;;4.63;3.63;;;20.70;52.30;;;;;;4901506;28;45255;-49
2023/10/10 07:50:35;;;;;;;6.40;4.00;;;20.70;52.30;;;;;;4922875;28;45413;-54
2023/10/10 07:53:05;;;;;;;6.88;4.25;;;20.70;52.40;;;;;;4926598;28;45443;-52
2023/10/10 07:55:34;;;;;;;6.20;4.00;;;20.70;52.30;;;;;;4909045;28;45228;-54
2023/10/10 07:58:00;;;;;;;5.97;4.23;;;20.70;52.30;;;;;;4901340;28;46454;-49
2023/10/10 08:00:38;;;;;;;5.85;4.10;;;20.70;52.30;;;;;;4913404;28;45945;-54
2023/10/10 08:03:06;;;;;;;7.88;3.90;;;20.70;52.30;;;;;;4898848;28;45419;-52
2023/10/10 08:05:33;;;;;;;6.40;3.80;;;20.70;52.30;;;;;;4910922;28;45260;-50
2023/10/10 08:08:04;;;;;;;7.23;4.00;;;20.70;52.30;;;;;;4898887;28;45260;-54
2023/10/10 08:10:37;;;;;;;7.03;4.20;;;20.70;52.30;;;;;;4890115;28;45201;-51
2023/10/10 08:13:10;;;;;;;5.78;3.80;;;20.70;52.30;;;;;;4921260;28;45485;-53
2023/10/10 08:15:48;;;;;;;6.32;3.92;;;20.70;52.30;;;;;;4904078;28;45262;-52
2023/10/10 08:18:19;;;;;;;6.03;4.07;;;20.70;52.30;;;;;;4912764;28;45579;-54
2023/10/10 08:23:11;;;;;;;6.90;4.13;;;20.70;52.30;;;;;;4916294;28;45769;-50
2023/10/10 08:25:37;;;;;;;5.90;3.97;;;20.70;52.30;;;;;;4890009;28;45222;-51
2023/10/10 08:28:04;;;;;;;5.65;3.70;;;20.70;52.30;;;;;;4912188;28;46144;-54
2023/10/10 08:30:29;;;;;;;8.15;4.00;;;20.70;52.30;;;;;;4908298;28;45299;-49
2023/10/10 08:32:58;;;;;;;6.70;3.92;;;20.70;52.30;;;;;;4893934;28;45902;-51
2023/10/10 08:35:26;;;;;;;5.57;3.75;;;20.70;52.30;;;;;;4905172;28;45611;-54
2023/10/10 08:37:52;;;;;;;5.85;3.88;;;20.70;52.30;;;;;;4879748;28;45630;-53
2023/10/10 08:40:21;;;;;;;5.53;3.95;;;20.70;52.30;;;;;;4915813;28;45245;-55
2023/10/10 08:42:50;;;;;;;6.05;3.95;;;20.70;52.30;;;;;;4900367;28;44728;-53
2023/10/10 08:45:23;;;;;;;6.20;4.05;;;20.70;52.30;;;;;;4903289;28;45304;-49
2023/10/10 08:48:00;;;;;;;5.60;3.72;;;20.70;52.30;;;;;;4907056;28;45323;-52
2023/10/10 08:50:32;;;;;;;5.63;3.43;;;20.70;52.30;;;;;;4896149;28;45030;-49
2023/10/10 08:52:59;;;;;;;5.63;3.55;;;20.70;52.30;;;;;;4903793;28;45446;-49
2023/10/10 08:55:28;;;;;;;5.13;3.92;;;20.70;52.30;;;;;;4891567;28;45404;-56
2023/10/10 08:57:55;;;;;;;5.43;3.60;;;20.70;52.30;;;;;;4915470;28;45183;-54
2023/10/10 09:00:27;;;;;;;5.70;3.90;;;20.70;52.30;;;;;;4902395;28;45741;-54
2023/10/10 09:02:56;;;;;;;5.78;3.78;;;20.70;52.30;;;;;;4897948;28;46102;-53
2023/10/10 09:05:23;;;;;;;5.65;3.72;;;20.70;52.30;;;;;;4911649;28;45832;-53
2023/10/10 09:07:52;;;;;;;5.50;3.92;;;20.70;52.30;;;;;;4910927;28;46457;-49
2023/10/10 09:10:46;;;;;;;5.60;3.83;;;20.70;52.30;;;;;;4898571;28;45142;-56
2023/10/10 09:13:10;;;;;;;7.40;3.90;;;20.70;52.30;;;;;;4912272;28;45614;-49
2023/10/10 09:15:36;;;;;;;4.88;3.53;;;20.70;52.30;;;;;;4899300;28;45337;-50
2023/10/10 09:18:22;;;;;;;6.03;3.92;;;20.70;52.30;;;;;;4908296;28;46424;-50
2023/10/10 09:20:47;;;;;;;5.65;4.10;;;20.70;52.40;;;;;;4902681;28;45290;-54
2023/10/10 09:23:21;;;;;;;5.13;3.40;;;20.70;52.30;;;;;;4921131;28;44781;-55
2023/10/10 09:25:57;;;;;;;6.47;4.20;;;20.70;52.30;;;;;;4903555;28;45602;-52
2023/10/10 09:28:30;;;;;;;5.10;3.78;;;20.70;52.30;;;;;;4920088;28;45292;-52
2023/10/10 09:30:59;;;;;;;5.95;3.58;;;20.80;52.40;;;;;;4900326;28;45324;-51
2023/10/10 09:33:29;;;;;;;7.50;4.50;;;20.70;52.30;;;;;;4878976;28;44945;-54
2023/10/10 09:36:01;;;;;;;5.97;3.60;;;20.70;52.30;;;;;;4905526;28;45405;-53
2023/10/10 09:38:34;;;;;;;4.60;3.60;;;20.70;52.30;;;;;;4920522;28;44972;-52
2023/10/10 09:41:11;;;;;;;5.57;3.87;;;20.70;52.40;;;;;;4907022;28;45210;-51
2023/10/10 09:49:40;;;;;;;6.95;3.92;;;20.80;52.40;;;;;;4921818;28;45145;-51
2023/10/10 09:55:39;;;;;;;4.95;3.70;;;20.70;52.40;;;;;;4898302;28;45501;-50
2023/10/10 09:58:01;;;;;;;5.43;3.92;;;20.70;52.40;;;;;;4906793;28;45379;-52
2023/10/10 10:00:45;;;;;;;5.10;4.00;;;20.70;52.40;;;;;;4890050;28;46164;-54
2023/10/10 10:05:59;;;;;;;5.82;3.88;;;20.80;52.40;;;;;;4897253;28;45732;-49
2023/10/10 10:08:37;;;;;;;5.43;3.65;;;20.70;52.40;;;;;;4911173;28;45020;-50
2023/10/10 10:11:25;;;;;;;5.78;3.97;;;20.70;52.30;;;;;;4894339;28;45478;-51
2023/10/10 10:14:14;;;;;;;6.75;3.88;;;20.70;52.40;;;;;;4905653;28;45248;-50
2023/10/10 10:16:46;;;;;;;5.17;3.60;;;20.80;52.40;;;;;;4879802;28;45249;-52
2023/10/10 10:19:15;;;;;;;5.40;3.35;;;20.70;52.40;;;;;;4882336;28;45546;-51
2023/10/10 10:22:06;;;;;;;5.18;3.65;;;20.70;52.40;;;;;;4904976;28;46285;-55
2023/10/10 10:24:33;;;;;;;5.30;3.65;;;20.80;52.50;;;;;;4911991;28;45734;-52
2023/10/10 10:27:13;;;;;;;5.82;3.65;;;20.80;52.50;;;;;;4895255;28;45738;-53
2023/10/10 10:29:42;;;;;;;5.60;3.40;;;20.80;52.40;;;;;;4916999;28;45469;-52
2023/10/10 10:32:10;;;;;;;4.80;3.38;;;20.80;52.40;;;;;;4893036;28;45764;-50
2023/10/10 10:34:36;;;;;;;4.35;3.42;;;20.70;52.40;;;;;;4888656;28;45147;-51
2023/10/10 10:37:19;;;;;;;5.30;3.30;;;20.70;52.40;;;;;;4888830;28;45239;-49
2023/10/10 10:42:34;;;;;;;5.70;3.80;;;20.70;52.40;;;;;;4890996;28;48408;-54
2023/10/10 10:45:34;;;;;;;5.22;3.50;;;20.80;52.50;;;;;;4890507;28;45308;-51
2023/10/10 10:47:59;;;;;;;5.13;3.67;;;20.80;52.50;;;;;;4901019;28;45174;-54
2023/10/10 10:50:29;;;;;;;4.83;3.40;;;20.80;52.50;;;;;;4901685;28;45223;-54
2023/10/10 10:53:06;;;;;;;5.25;3.65;;;20.80;52.50;;;;;;4912718;28;46813;-54
2023/10/10 10:55:31;;;;;;;5.78;3.58;;;20.80;52.50;;;;;;4894781;28;45223;-57
2023/10/10 10:58:07;;;;;;;4.60;3.60;;;20.80;52.50;;;;;;4910492;28;45278;-49
2023/10/10 11:03:35;;;;;;;5.63;3.78;;;20.80;52.50;;;;;;4903084;28;45102;-49
2023/10/10 11:06:06;;;;;;;5.60;3.60;;;20.80;52.50;;;;;;4909668;28;44671;-50
2023/10/10 11:09:08;;;;;;;5.28;3.40;;;20.80;52.50;;;;;;4910280;28;45482;-55
2023/10/10 11:11:36;;;;;;;4.70;3.35;;;20.80;52.50;;;;;;4908741;28;45642;-54
2023/10/10 11:14:10;;;;;;;6.28;3.97;;;20.80;52.50;;;;;;4898379;28;45609;-49
2023/10/10 11:16:44;;;;;;;5.50;3.63;;;20.80;52.50;;;;;;4905591;28;45239;-50
2023/10/10 11:19:19;;;;;;;5.53;3.50;;;20.80;52.50;;;;;;4905656;28;45348;-55
2023/10/10 11:21:53;;;;;;;5.35;3.40;;;20.90;52.50;;;;;;4893298;28;45207;-52
2023/10/10 11:24:23;;;;;;;4.55;3.25;;;20.90;52.50;;;;;;4886913;28;45820;-55
2023/10/10 11:27:02;;;;;;;5.47;3.63;;;20.90;52.60;;;;;;4907666;28;44599;-52
2023/10/10 11:29:27;;;;;;;5.30;3.55;;;20.90;52.50;;;;;;4915036;28;45606;-51
2023/10/10 11:32:11;;;;;;;4.72;3.30;;;20.90;52.50;;;;;;4896656;28;44736;-54
2023/10/10 11:34:46;;;;;;;5.35;3.50;;;20.80;52.50;;;;;;4918579;28;46461;-55
2023/10/10 11:37:20;;;;;;;4.55;3.15;;;20.90;52.50;;;;;;4898493;28;45078;-53
2023/10/10 11:39:47;;;;;;;6.13;3.67;;;20.90;52.50;;;;;;4915716;28;45232;-53
2023/10/10 11:42:33;;;;;;;5.07;3.40;;;20.90;52.50;;;;;;4910598;28;45545;-51
2023/10/10 11:45:17;;;;;;;5.10;3.38;;;20.90;52.60;;;;;;4912114;28;48663;-55
2023/10/10 11:47:44;;;;;;;4.50;3.28;;;20.90;52.60;;;;;;4872611;28;51274;-52
2023/10/10 11:50:12;;;;;;;5.90;3.33;;;20.90;52.50;;;;;;4891877;28;45849;-55
2023/10/10 11:52:56;;;;;;;5.25;3.35;;;20.90;52.60;;;;;;4897840;28;46792;-52
2023/10/10 11:55:26;;;;;;;5.45;3.63;;;20.90;52.60;;;;;;4863484;28;45337;-51
2023/10/10 11:57:57;;;;;;;5.80;3.50;;;20.90;52.50;;;;;;4903512;28;45467;-54
2023/10/10 12:00:28;;;;;;;4.30;3.30;;;20.90;52.60;;;;;;4868356;28;45391;-51
2023/10/10 12:02:57;;;;;;;5.73;3.60;;;20.90;52.60;;;;;;4910533;28;45713;-51
2023/10/10 12:08:00;;;;;;;4.68;3.05;;;21.00;53.20;;;;;;4921662;28;45275;-55
2023/10/10 12:10:41;;;;;;;4.20;3.10;;;20.90;52.60;;;;;;4907244;28;45304;-56
2023/10/10 12:13:09;;;;;;;4.32;3.10;;;20.90;52.60;;;;;;4906128;28;45215;-55
2023/10/10 12:15:45;;;;;;;4.80;3.30;;;20.90;52.60;;;;;;4901850;28;45405;-55
2023/10/10 12:18:10;;;;;;;5.18;3.40;;;20.90;52.60;;;;;;4912992;28;45278;-53
2023/10/10 12:20:43;;;;;;;4.60;3.03;;;20.90;52.60;;;;;;4907187;28;45357;-52
2023/10/10 12:23:12;;;;;;;5.80;3.42;;;20.90;52.60;;;;;;4890877;28;45410;-53
2023/10/10 12:25:43;;;;;;;4.90;3.33;;;21.00;52.60;;;;;;4909919;28;45213;-54
2023/10/10 12:28:09;;;;;;;4.47;3.40;;;21.00;52.60;;;;;;4907110;28;45002;-55
2023/10/10 12:30:41;;;;;;;5.95;3.45;;;21.00;52.60;;;;;;4885167;28;46002;-53
2023/10/10 12:33:15;;;;;;;6.53;3.22;;;21.00;52.70;;;;;;4856879;28;45177;-51
2023/10/10 12:35:47;;;;;;;4.43;3.30;;;21.00;52.60;;;;;;4905668;28;46131;-52
2023/10/10 12:38:15;;;;;;;4.07;3.03;;;21.00;52.60;;;;;;4914610;28;45402;-51
2023/10/10 12:40:43;;;;;;;5.20;3.40;;;21.00;52.70;;;;;;4910664;28;46008;-52
2023/10/10 12:43:11;;;;;;;4.43;3.15;;;21.00;52.60;;;;;;4897520;28;45376;-51
2023/10/10 12:45:37;;;;;;;4.05;2.95;;;21.00;52.60;;;;;;4901652;28;45212;-49
2023/10/10 12:48:04;;;;;;;4.77;3.20;;;21.00;52.70;;;;;;4916167;28;45267;-53
2023/10/10 12:50:32;;;;;;;4.57;2.88;;;21.00;52.70;;;;;;4907874;28;45201;-50
2023/10/10 12:53:07;;;;;;;4.70;3.20;;;21.00;52.70;;;;;;4914652;28;45384;-53
2023/10/10 12:55:52;;;;;;;3.85;3.00;;;21.00;52.70;;;;;;4899263;28;45573;-54
2023/10/10 12:58:22;;;;;;;4.97;3.17;;;21.00;52.70;;;;;;4914712;28;45318;-54
2023/10/10 13:00:51;;;;;;;5.00;3.00;;;21.00;52.70;;;;;;4896366;28;45289;-53
2023/10/10 13:03:22;;;;;;;4.28;3.17;;;21.00;52.70;;;;;;4909735;28;46218;-54
2023/10/10 13:05:50;;;;;;;5.13;3.30;;;21.00;52.70;;;;;;4911528;28;45314;-52
2023/10/10 13:08:19;;;;;;;4.78;3.13;;;21.00;52.70;;;;;;4901850;28;45286;-50
2023/10/10 13:10:46;;;;;;;5.07;3.17;;;21.10;52.80;;;;;;4904858;28;46785;-51
2023/10/10 13:13:26;;;;;;;4.60;3.00;;;21.10;52.80;;;;;;4915183;28;45312;-51
2023/10/10 13:16:07;;;;;;;4.55;3.00;;;21.10;52.80;;;;;;4910522;28;46247;-53
2023/10/10 13:18:33;;;;;;;3.92;2.90;;;21.10;52.70;;;;;;4919093;28;45366;-50
2023/10/10 13:21:00;;;;;;;4.35;3.08;;;21.10;52.70;;;;;;4906261;28;45285;-51
2023/10/10 13:23:25;;;;;;;3.60;2.83;;;21.10;52.80;;;;;;4917674;28;45342;-50
2023/10/10 13:25:51;;;;;;;4.90;2.88;;;21.10;52.80;;;;;;4908641;28;45873;-50
2023/10/10 13:28:21;;;;;;;4.43;3.10;;;21.10;52.80;;;;;;4920421;28;45371;-53
2023/10/10 13:30:46;;;;;;;4.07;3.00;;;21.10;52.70;;;;;;4903717;28;45306;-51
2023/10/10 13:33:13;;;;;;;4.25;2.90;;;21.10;52.80;;;;;;4903578;28;45366;-50
2023/10/10 13:35:39;;;;;;;4.00;2.90;;;21.10;52.80;;;;;;4913749;28;45164;-51
2023/10/10 13:38:06;;;;;;;4.30;2.90;;;21.10;52.80;;;;;;4916703;28;45852;-52
2023/10/10 13:40:37;;;;;;;4.13;2.80;;;21.10;52.80;;;;;;4911134;28;45350;-54
2023/10/10 13:43:08;;;;;;;4.60;3.00;;;21.10;52.80;;;;;;4921472;28;45492;-55
2023/10/10 13:45:38;;;;;;;5.07;3.10;;;21.10;52.80;;;;;;4908626;28;45369;-54
2023/10/10 13:48:08;;;;;;;4.47;3.00;;;21.10;52.70;;;;;;4898695;28;45301;-55
2023/10/10 13:50:44;;;;;;;4.22;3.08;;;21.20;52.80;;;;;;4916416;28;45251;-51
2023/10/10 13:53:13;;;;;;;4.55;3.00;;;21.20;52.80;;;;;;4915146;28;45321;-53
2023/10/10 13:55:43;;;;;;;4.55;2.67;;;21.20;52.80;;;;;;4911900;28;45827;-52
2023/10/10 13:58:11;;;;;;;4.55;2.83;;;21.20;52.80;;;;;;4914674;28;45014;-55
2023/10/10 14:00:37;;;;;;;4.43;3.00;;;21.20;52.80;;;;;;4914057;28;45549;-53
2023/10/10 14:03:04;;;;;;;4.85;3.20;;;21.20;52.90;;;;;;4913463;28;45525;-53
2023/10/10 14:05:34;;;;;;;3.72;2.50;;;21.20;52.80;;;;;;4900586;28;45889;-54
2023/10/10 14:08:06;;;;;;;4.93;3.20;;;21.20;52.80;;;;;;4915302;28;45524;-52
2023/10/10 14:10:38;;;;;;;4.50;2.95;;;21.20;52.90;;;;;;4911087;28;44966;-54
2023/10/10 14:13:18;;;;;;;4.37;2.97;;;21.20;52.80;;;;;;4921025;28;45316;-50
2023/10/10 14:15:56;;;;;;;4.30;3.00;;;21.30;52.90;;;;;;4900176;28;46254;-53
2023/10/10 14:18:23;;;;;;;4.53;3.10;;;21.20;52.90;;;;;;4876731;28;44742;-52
2023/10/10 14:20:50;;;;;;;4.60;3.08;;;21.20;52.90;;;;;;4909513;28;45363;-52
2023/10/10 14:23:18;;;;;;;4.23;2.80;;;21.20;52.80;;;;;;4912270;28;45594;-51
2023/10/10 14:25:47;;;;;;;6.38;3.17;;;21.30;52.90;;;;;;4913127;28;46207;-51
2023/10/10 14:28:16;;;;;;;3.92;2.92;;;21.20;52.90;;;;;;4909901;28;45250;-55
2023/10/10 14:30:43;;;;;;;5.15;2.97;;;21.30;52.90;;;;;;4895514;28;45260;-54
2023/10/10 14:33:08;;;;;;;4.50;2.80;;;21.30;52.90;;;;;;4898051;28;45008;-53
2023/10/10 14:35:34;;;;;;;4.57;2.73;;;21.30;52.90;;;;;;4904891;28;45377;-53
2023/10/10 14:38:00;;;;;;;4.57;3.40;;;21.30;53.00;;;;;;4922271;28;45238;-51
2023/10/10 14:40:26;;;;;;;3.65;2.70;;;21.30;53.00;;;;;;4905931;28;45975;-50
2023/10/10 14:42:52;;;;;;;4.83;2.80;;;21.20;52.90;;;;;;4886286;28;45528;-54
2023/10/10 14:45:28;;;;;;;3.67;2.60;;;21.30;53.00;;;;;;4907254;28;45435;-54
2023/10/10 14:47:55;;;;;;;4.45;3.15;;;21.30;52.90;;;;;;4917486;28;45822;-51
2023/10/10 14:50:24;;;;;;;4.30;2.85;;;21.30;53.00;;;;;;4890250;28;45682;-50
2023/10/10 14:52:53;;;;;;;4.00;2.80;;;21.30;53.00;;;;;;4922126;28;45387;-53
2023/10/10 14:55:25;;;;;;;4.85;2.70;;;21.30;52.90;;;;;;4897836;28;46098;-54
2023/10/10 14:57:57;;;;;;;4.13;2.83;;;21.30;53.00;;;;;;4895211;28;46343;-50
2023/10/10 15:00:24;;;;;;;4.37;2.80;;;21.30;52.90;;;;;;4871724;28;45317;-54
2023/10/10 15:02:53;;;;;;;4.60;2.80;;;21.30;52.90;;;;;;4912613;28;45570;-50
2023/10/10 15:05:20;;;;;;;4.03;2.90;;;21.30;52.90;;;;;;4905723;28;46356;-52
2023/10/10 15:07:46;;;;;;;4.70;2.93;;;21.30;52.90;;;;;;4909749;28;45351;-51
2023/10/10 15:10:12;;;;;;;3.60;2.50;;;21.30;53.00;;;;;;4908653;28;45250;-53
2023/10/10 15:12:37;;;;;;;3.78;2.60;;;21.30;53.00;;;;;;4909101;28;45449;-55
2023/10/10 15:15:04;;;;;;;4.60;2.83;;;21.40;53.00;;;;;;4909407;28;45332;-51
2023/10/10 15:17:34;;;;;;;6.70;3.35;;;21.40;53.00;;;;;;4851503;28;45304;-53
2023/10/10 15:20:00;;;;;;;5.10;2.75;;;21.30;52.90;;;;;;4918976;28;45528;-50
2023/10/10 15:22:26;;;;;;;3.95;2.90;;;21.40;52.90;;;;;;4908800;28;45553;-53
2023/10/10 15:24:52;;;;;;;3.95;2.83;;;21.30;52.90;;;;;;4903710;28;46204;-53
2023/10/10 15:27:19;;;;;;;5.13;3.03;;;21.40;53.00;;;;;;4893358;28;46683;-54
2023/10/10 15:29:44;;;;;;;6.03;2.97;;;21.40;53.00;;;;;;4914013;28;45218;-54
2023/10/10 15:32:13;;;;;;;5.05;2.95;;;21.40;53.00;;;;;;4884611;28;45256;-51
2023/10/10 15:34:40;;;;;;;3.67;2.33;;;21.40;53.00;;;;;;4912928;28;45911;-54
2023/10/10 15:37:14;;;;;;;5.55;3.13;;;21.40;52.90;;;;;;4903190;28;45387;-52
2023/10/10 15:39:43;;;;;;;4.43;2.70;;;21.40;53.00;;;;;;4913453;28;44791;-52
2023/10/10 15:42:10;;;;;;;5.93;2.83;;;21.40;53.00;;;;;;4909229;28;45625;-52
2023/10/10 15:44:40;;;;;;;5.95;3.05;;;21.40;53.00;;;;;;4909439;28;45192;-50
2023/10/10 15:47:06;;;;;;;5.20;3.23;;;21.40;53.00;;;;;;4902608;28;45262;-52
2023/10/10 15:49:32;;;;;;;4.50;2.80;;;21.40;53.00;;;;;;4910521;28;46625;-52
2023/10/10 15:52:03;;;;;;;4.55;2.90;;;21.40;53.00;;;;;;4908919;28;45920;-50
2023/10/10 15:54:33;;;;;;;4.82;3.05;;;21.40;53.00;;;;;;4893688;28;46005;-52
2023/10/10 15:57:03;;;;;;;4.57;2.63;;;21.40;53.00;;;;;;4905356;28;46570;-53
2023/10/10 15:59:29;;;;;;;4.80;2.85;;;21.40;53.00;;;;;;4912569;28;45268;-53
2023/10/10 16:01:56;;;;;;;5.10;2.72;;;21.40;53.00;;;;;;4897837;28;45606;-53
2023/10/10 16:04:23;;;;;;;4.68;2.92;;;21.40;53.00;;;;;;4908184;28;46411;-54
2023/10/10 16:06:50;;;;;;;3.03;2.50;;;21.40;53.00;;;;;;4895609;28;46848;-52
2023/10/10 16:09:29;;;;;;;5.10;2.90;;;21.40;53.00;;;;;;4917614;28;45553;-53
2023/10/10 16:11:55;;;;;;;3.85;2.70;;;21.40;53.00;;;;;;4910791;28;46174;-50
2023/10/10 16:14:21;;;;;;;4.20;2.87;;;21.40;53.00;;;;;;4911235;28;46119;-50
2023/10/10 16:16:47;;;;;;;4.22;2.70;;;21.40;53.00;;;;;;4880582;28;45503;-50
2023/10/10 16:19:14;;;;;;;4.53;2.87;;;21.40;52.90;;;;;;4889226;28;45286;-53
2023/10/10 16:21:40;;;;;;;4.37;2.57;;;21.40;53.00;;;;;;4886852;28;45594;-50
2023/10/10 16:24:10;;;;;;;4.90;3.08;;;21.40;53.00;;;;;;4909462;28;46540;-53
2023/10/10 16:26:36;;;;;;;6.30;2.80;;;21.40;53.00;;;;;;4885502;28;46037;-51
2023/10/10 16:29:01;;;;;;;4.45;2.72;;;21.40;53.00;;;;;;4864674;28;46087;-53
2023/10/10 16:31:31;;;;;;;4.15;2.63;;;21.50;53.00;;;;;;4887785;28;45239;-52
2023/10/10 16:33:57;;;;;;;4.13;2.90;;;21.40;53.00;;;;;;4873479;28;45862;-52
2023/10/10 16:36:23;;;;;;;4.27;2.80;;;21.40;53.00;;;;;;4896011;28;45076;-54
2023/10/10 16:38:52;;;;;;;3.43;2.67;;;21.40;52.90;;;;;;4890851;28;45594;-51
2023/10/10 16:41:22;;;;;;;5.00;2.80;;;21.50;53.00;;;;;;4886079;28;44718;-54
2023/10/10 16:43:48;;;;;;;5.20;2.97;;;21.50;53.30;;;;;;4893845;28;45615;-51
2023/10/10 16:46:14;;;;;;;4.00;2.60;;;21.40;52.90;;;;;;4896162;28;45995;-51
2023/10/10 16:48:40;;;;;;;4.72;2.97;;;21.50;53.00;;;;;;4896075;28;46807;-52
2023/10/10 16:51:09;;;;;;;3.73;2.67;;;21.50;53.00;;;;;;4900202;28;45425;-51
2023/10/10 16:53:43;;;;;;;6.28;3.10;;;21.50;53.00;;;;;;4885929;28;45457;-54
2023/10/10 16:56:09;;;;;;;4.63;2.88;;;21.50;53.00;;;;;;4894647;28;45444;-52
2023/10/10 16:58:38;;;;;;;4.85;3.08;;;21.40;52.90;;;;;;4887210;28;45827;-53
2023/10/10 17:01:12;;;;;;;4.57;2.95;;;21.50;53.00;;;;;;4900270;28;45478;-50
2023/10/10 17:03:43;;;;;;;4.25;2.80;;;21.50;53.00;;;;;;4904104;28;46073;-52
2023/10/10 17:06:13;;;;;;;4.55;2.70;;;21.50;53.00;;;;;;4885155;28;44983;-54
2023/10/10 17:08:39;;;;;;;4.68;3.10;;;21.50;53.00;;;;;;4902016;28;44779;-53
2023/10/10 17:11:09;;;;;;;5.17;3.00;;;21.50;53.00;;;;;;4904734;28;45149;-54
2023/10/10 17:13:38;;;;;;;7.43;3.80;;;21.50;53.00;;;;;;4887953;28;46695;-51
2023/10/10 17:16:11;;;;;;;5.00;3.30;;;21.50;53.00;;;;;;4895543;28;45929;-54
2023/10/10 17:18:43;;;;;;;5.40;3.07;;;21.50;53.00;;;;;;4900640;28;44721;-53
2023/10/10 17:21:18;;;;;;;5.15;3.10;;;21.50;53.00;;;;;;4870315;28;46758;-50
2023/10/10 17:23:46;;;;;;;5.57;3.28;;;21.50;53.00;;;;;;4906261;28;46232;-52
2023/10/10 17:26:13;;;;;;;4.70;3.15;;;21.50;53.00;;;;;;4881496;28;47912;-53
2023/10/10 17:28:39;;;;;;;6.60;3.33;;;21.50;53.00;;;;;;4902410;28;46032;-50
2023/10/10 17:31:04;;;;;;;6.57;3.30;;;21.50;53.00;;;;;;4857912;28;45160;-52
2023/10/10 17:33:33;;;;;;;5.43;3.50;;;21.50;53.00;;;;;;4900501;28;45286;-52
2023/10/10 17:36:00;;;;;;;5.57;3.28;;;21.50;53.00;;;;;;4902599;28;45889;-57
2023/10/10 17:38:27;;;;;;;7.07;3.20;;;21.50;52.90;;;;;;4893353;28;45493;-53
2023/10/10 17:41:02;;;;;;;5.82;3.20;;;21.50;53.00;;;;;;4895331;28;45236;-53
2023/10/10 17:43:31;;;;;;;5.05;3.30;;;21.50;53.00;;;;;;4888232;28;45704;-54
2023/10/10 17:45:56;;;;;;;5.85;3.58;;;21.50;52.90;;;;;;4898038;28;45222;-54
2023/10/10 17:48:22;;;;;;;5.60;3.25;;;21.50;52.90;;;;;;4905272;28;45307;-51
2023/10/10 17:50:48;;;;;;;5.50;3.30;;;21.50;53.00;;;;;;4879293;28;45247;-56
2023/10/10 17:53:14;;;;;;;4.90;3.22;;;21.50;52.90;;;;;;4909978;28;46270;-54
2023/10/10 17:55:48;;;;;;;5.95;3.30;;;21.50;53.50;;;;;;4895337;28;45098;-55
2023/10/10 17:58:16;;;;;;;4.90;3.22;;;21.50;52.90;;;;;;4876970;28;45753;-55
2023/10/10 18:00:45;;;;;;;4.93;3.15;;;21.50;53.00;;;;;;4894258;28;46692;-54
2023/10/10 18:03:10;;;;;;;5.30;3.42;;;21.50;52.90;;;;;;4889563;28;45052;-53
2023/10/10 18:05:42;;;;;;;7.18;3.20;;;21.50;52.90;;;;;;4884888;28;46018;-55
2023/10/10 18:08:10;;;;;;;5.07;3.22;;;21.50;52.90;;;;;;4915176;28;45856;-52
2023/10/10 18:10:36;;;;;;;5.72;3.35;;;21.50;52.90;;;;;;4900261;28;45477;-52
2023/10/10 18:13:04;;;;;;;6.00;3.58;;;21.50;52.90;;;;;;4873588;28;46712;-52
2023/10/10 18:15:31;;;;;;;6.18;3.22;;;21.50;52.90;;;;;;4898288;28;46179;-54
2023/10/10 18:17:56;;;;;;;5.18;3.40;;;21.50;52.90;;;;;;4907558;28;45203;-53
2023/10/10 18:20:23;;;;;;;7.40;3.35;;;21.50;52.90;;;;;;4904752;28;46119;-55
2023/10/10 18:22:51;;;;;;;6.85;3.53;;;21.50;52.90;;;;;;4902151;28;47285;-51